createdAt,value
2023-03-01T00:00:24.119Z,8.20
2023-03-01T00:02:25.780Z,7.77
2023-03-01T00:04:28.689Z,8.27
2023-03-01T00:06:30.550Z,8.07
2023-03-01T00:08:33.837Z,8.03
2023-03-01T00:10:35.513Z,7.90
2023-03-01T00:12:37.641Z,8.27
2023-03-01T00:14:39.558Z,10.07
2023-03-01T00:16:43.058Z,9.70
2023-03-01T00:18:45.074Z,9.67
2023-03-01T00:20:53.717Z,8.87
2023-03-01T00:22:55.475Z,8.67
2023-03-01T00:24:57.201Z,8.30
2023-03-01T00:26:58.854Z,8.53
2023-03-01T00:29:00.855Z,9.23
2023-03-01T00:31:10.379Z,10.70
2023-03-01T00:33:12.087Z,9.27
2023-03-01T00:35:13.765Z,9.90
2023-03-01T00:37:15.406Z,9.73
2023-03-01T00:39:19.722Z,9.60
2023-03-01T00:41:23.637Z,8.97
2023-03-01T00:43:25.248Z,9.37
2023-03-01T00:45:28.018Z,9.80
2023-03-01T00:47:30.378Z,10.03
2023-03-01T00:49:32.223Z,8.67
2023-03-01T00:51:34.130Z,8.87
2023-03-01T00:53:36.870Z,9.37
2023-03-01T00:55:38.545Z,10.13
2023-03-01T00:57:40.300Z,8.87
2023-03-01T00:59:41.941Z,7.73
2023-03-01T01:01:43.667Z,8.80
2023-03-01T01:04:03.637Z,9.10
2023-03-01T01:06:10.353Z,9.70
2023-03-01T01:08:12.337Z,10.40
2023-03-01T01:10:17.993Z,9.00
2023-03-01T01:12:19.933Z,9.47
2023-03-01T01:14:21.666Z,8.63
2023-03-01T01:16:25.190Z,9.10
2023-03-01T01:18:26.794Z,9.63
2023-03-01T01:20:28.794Z,9.13
2023-03-01T01:22:30.373Z,8.73
2023-03-01T01:24:32.322Z,9.70
2023-03-01T01:26:35.220Z,10.50
2023-03-01T01:28:37.172Z,8.27
2023-03-01T01:30:38.873Z,8.57
2023-03-01T01:32:40.634Z,8.93
2023-03-01T01:34:42.338Z,10.13
2023-03-01T01:36:44.534Z,10.37
2023-03-01T01:38:46.616Z,7.67
2023-03-01T01:40:49.815Z,9.33
2023-03-01T01:42:51.448Z,10.10
2023-03-01T01:45:30.647Z,9.30
2023-03-01T01:47:32.607Z,11.03
2023-03-01T01:49:55.819Z,11.10
2023-03-01T01:52:11.614Z,10.37
2023-03-01T01:54:17.634Z,10.53
2023-03-01T01:56:19.951Z,10.97
2023-03-01T01:58:22.649Z,11.27
2023-03-01T02:00:27.566Z,11.27
2023-03-01T02:02:29.356Z,11.80
2023-03-01T02:04:32.422Z,10.87
2023-03-01T02:06:38.393Z,11.07
2023-03-01T02:08:42.528Z,10.40
2023-03-01T02:10:44.773Z,10.40
2023-03-01T02:12:46.766Z,10.63
2023-03-01T02:14:48.470Z,11.60
2023-03-01T02:16:50.529Z,10.30
2023-03-01T02:18:52.497Z,12.43
2023-03-01T02:21:18.305Z,11.03
2023-03-01T02:23:20.023Z,10.10
2023-03-01T02:25:29.344Z,10.90
2023-03-01T02:27:39.904Z,10.87
2023-03-01T02:29:44.547Z,11.07
2023-03-01T02:31:46.314Z,11.50
2023-03-01T02:33:49.553Z,10.63
2023-03-01T02:35:51.288Z,12.10
2023-03-01T02:37:52.992Z,10.67
2023-03-01T02:39:59.785Z,11.10
2023-03-01T02:42:02.998Z,11.67
2023-03-01T02:44:05.600Z,11.43
2023-03-01T02:46:14.288Z,11.70
2023-03-01T02:48:15.961Z,12.20
2023-03-01T02:50:26.649Z,11.27
2023-03-01T02:52:48.326Z,12.53
2023-03-01T02:54:59.108Z,10.23
2023-03-01T02:57:00.808Z,10.93
2023-03-01T02:59:03.979Z,10.23
2023-03-01T03:01:05.652Z,11.20
2023-03-01T03:03:08.205Z,11.03
2023-03-01T03:05:15.673Z,10.97
2023-03-01T03:07:17.901Z,11.33
2023-03-01T03:09:20.069Z,12.10
2023-03-01T03:11:21.895Z,9.93
2023-03-01T03:13:23.897Z,10.97
2023-03-01T03:15:26.993Z,10.13
2023-03-01T03:17:28.638Z,11.53
2023-03-01T03:19:30.299Z,12.50
2023-03-01T03:21:35.666Z,11.03
2023-03-01T03:23:37.476Z,10.80
2023-03-01T03:25:39.177Z,9.77
2023-03-01T03:27:42.218Z,10.57
2023-03-01T03:29:43.865Z,9.40
2023-03-01T03:31:45.595Z,10.43
2023-03-01T03:33:47.221Z,11.63
2023-03-01T03:35:50.908Z,10.30
2023-03-01T03:38:07.469Z,11.13
2023-03-01T03:40:16.445Z,10.50
2023-03-01T03:42:18.501Z,10.10
2023-03-01T03:44:20.958Z,11.17
2023-03-01T03:46:22.589Z,11.63
2023-03-01T03:48:24.375Z,9.73
2023-03-01T03:50:26.058Z,11.67
2023-03-01T03:52:27.680Z,11.67
2023-03-01T03:54:29.412Z,10.90
2023-03-01T03:56:31.443Z,11.83
2023-03-01T03:58:33.308Z,10.87
2023-03-01T04:00:43.560Z,10.47
2023-03-01T04:02:46.198Z,11.30
2023-03-01T04:04:47.873Z,11.33
2023-03-01T04:06:49.655Z,10.73
2023-03-01T04:08:52.145Z,12.37
2023-03-01T04:10:58.972Z,11.00
2023-03-01T04:13:00.621Z,10.83
2023-03-01T04:15:13.915Z,11.93
2023-03-01T04:17:15.650Z,10.33
2023-03-01T04:19:17.335Z,12.00
2023-03-01T04:21:21.281Z,11.83
2023-03-01T04:23:22.982Z,12.17
2023-03-01T04:25:25.270Z,11.37
2023-03-01T04:27:26.940Z,11.17
2023-03-01T04:29:28.674Z,10.90
2023-03-01T04:31:30.394Z,10.80
2023-03-01T04:33:32.010Z,12.70
2023-03-01T04:35:34.068Z,10.93
2023-03-01T04:37:36.055Z,12.60
2023-03-01T04:39:46.486Z,11.57
2023-03-01T04:41:48.582Z,11.93
2023-03-01T04:43:50.532Z,12.93
2023-03-01T04:45:52.210Z,11.73
2023-03-01T04:47:53.830Z,12.73
2023-03-01T04:49:55.443Z,12.57
2023-03-01T04:51:59.340Z,12.43
2023-03-01T04:54:01.488Z,12.33
2023-03-01T04:56:04.070Z,11.97
2023-03-01T04:58:05.713Z,12.13
2023-03-01T05:00:21.493Z,12.43
2023-03-01T05:02:23.500Z,12.03
2023-03-01T05:04:25.952Z,12.87
2023-03-01T05:06:27.611Z,13.37
2023-03-01T05:08:29.373Z,11.73
2023-03-01T05:10:32.995Z,12.57
2023-03-01T05:12:34.650Z,12.57
2023-03-01T05:14:36.613Z,12.63
2023-03-01T05:16:38.447Z,14.07
2023-03-01T05:18:41.420Z,11.63
2023-03-01T05:20:43.204Z,12.33
2023-03-01T05:22:45.063Z,13.77
2023-03-01T05:24:47.899Z,12.97
2023-03-01T05:26:49.538Z,11.37
2023-03-01T05:28:51.170Z,12.77
2023-03-01T05:30:53.065Z,11.83
2023-03-01T05:32:56.891Z,13.53
2023-03-01T05:34:58.643Z,12.23
2023-03-01T05:37:00.635Z,13.33
2023-03-01T05:39:02.293Z,12.80
2023-03-01T05:41:04.276Z,12.87
2023-03-01T05:43:06.236Z,13.70
2023-03-01T05:45:10.688Z,13.73
2023-03-01T05:47:12.323Z,12.90
2023-03-01T05:49:14.880Z,12.77
2023-03-01T05:51:16.539Z,12.90
2023-03-01T05:53:23.030Z,12.93
2023-03-01T05:55:24.824Z,13.57
2023-03-01T05:57:26.886Z,11.53
2023-03-01T05:59:28.766Z,11.80
2023-03-01T06:01:30.440Z,12.80
2023-03-01T06:03:32.074Z,12.47
2023-03-01T06:05:33.847Z,13.63
2023-03-01T06:07:36.158Z,11.93
2023-03-01T06:09:37.820Z,13.73
2023-03-01T06:11:39.504Z,13.50
2023-03-01T06:13:45.213Z,14.17
2023-03-01T06:15:46.938Z,13.30
2023-03-01T06:17:48.838Z,14.47
2023-03-01T06:19:50.441Z,14.37
2023-03-01T06:21:52.132Z,15.37
2023-03-01T06:23:53.759Z,13.13
2023-03-01T06:25:55.568Z,14.93
2023-03-01T06:27:57.302Z,14.37
2023-03-01T06:29:58.956Z,14.70
2023-03-01T06:32:00.615Z,15.93
2023-03-01T06:34:02.258Z,16.17
2023-03-01T06:36:04.366Z,14.97
2023-03-01T06:38:06.439Z,14.77
2023-03-01T06:40:09.268Z,15.27
2023-03-01T06:42:11.154Z,15.27
2023-03-01T06:44:12.890Z,17.40
2023-03-01T06:46:14.508Z,14.87
2023-03-01T06:48:16.454Z,14.73
2023-03-01T06:50:19.115Z,14.20
2023-03-01T06:52:20.784Z,15.50
2023-03-01T06:54:23.442Z,15.50
2023-03-01T06:56:25.336Z,15.23
2023-03-01T06:58:27.430Z,16.00
2023-03-01T07:00:29.872Z,14.87
2023-03-01T07:02:31.630Z,16.70
2023-03-01T07:04:33.302Z,15.33
2023-03-01T07:06:34.994Z,14.77
2023-03-01T07:08:36.730Z,16.60
2023-03-01T07:10:41.178Z,16.17
2023-03-01T07:12:42.831Z,14.67
2023-03-01T07:14:45.310Z,14.73
2023-03-01T07:16:47.303Z,14.90
2023-03-01T07:18:49.026Z,13.63
2023-03-01T07:20:50.772Z,17.03
2023-03-01T07:22:53.542Z,15.03
2023-03-01T07:24:55.173Z,15.23
2023-03-01T07:26:56.804Z,14.57
2023-03-01T07:29:00.833Z,14.93
2023-03-01T07:31:06.597Z,16.63
2023-03-01T07:33:09.167Z,16.43
2023-03-01T07:35:10.821Z,16.03
2023-03-01T07:37:12.421Z,15.13
2023-03-01T07:39:14.191Z,13.67
2023-03-01T07:41:15.807Z,15.37
2023-03-01T07:43:17.379Z,14.83
2023-03-01T07:45:19.206Z,13.47
2023-03-01T07:47:20.891Z,13.67
2023-03-01T07:49:22.994Z,13.73
2023-03-01T07:51:25.223Z,14.27
2023-03-01T07:53:26.899Z,14.07
2023-03-01T07:55:28.583Z,15.30
2023-03-01T07:57:30.271Z,14.10
2023-03-01T07:59:32.463Z,14.40
2023-03-01T08:01:34.137Z,14.67
2023-03-01T08:03:37.130Z,15.10
2023-03-01T08:05:38.788Z,14.93
2023-03-01T08:07:40.439Z,14.47
2023-03-01T08:09:42.093Z,14.27
2023-03-01T08:11:43.847Z,13.67
2023-03-01T08:13:51.105Z,13.38
2023-03-01T08:15:53.905Z,13.13
2023-03-01T08:17:55.582Z,14.20
2023-03-01T08:19:57.226Z,12.13
2023-03-01T08:21:59.280Z,13.93
2023-03-01T08:24:00.936Z,14.03
2023-03-01T08:26:28.784Z,13.52
2023-03-01T08:28:30.462Z,12.43
2023-03-01T08:30:32.799Z,14.90
2023-03-01T08:32:39.722Z,13.05
2023-03-01T08:34:42.617Z,13.73
2023-03-01T08:36:46.371Z,13.38
2023-03-01T08:38:48.198Z,13.35
2023-03-01T08:40:49.856Z,11.68
2023-03-01T08:42:51.462Z,13.32
2023-03-01T08:44:53.217Z,9.35
2023-03-01T08:46:56.694Z,9.70
2023-03-01T08:48:58.647Z,11.50
2023-03-01T08:51:10.652Z,12.05
2023-03-01T08:53:12.374Z,11.50
2023-03-01T08:55:16.048Z,11.60
2023-03-01T08:57:17.753Z,11.95
2023-03-01T08:59:20.473Z,10.57
2023-03-01T09:01:22.116Z,13.98
2023-03-01T09:03:25.391Z,12.27
2023-03-01T09:05:27.166Z,10.48
2023-03-01T09:07:29.273Z,12.35
2023-03-01T09:09:31.063Z,11.40
2023-03-01T09:11:35.780Z,12.05
2023-03-01T09:13:37.893Z,11.65
2023-03-01T09:15:39.826Z,12.48
2023-03-01T09:17:41.434Z,12.07
2023-03-01T09:19:43.080Z,9.93
2023-03-01T09:21:53.540Z,11.07
2023-03-01T09:23:58.005Z,11.30
2023-03-01T09:25:59.750Z,11.38
2023-03-01T09:28:01.639Z,12.13
2023-03-01T09:30:03.860Z,12.50
2023-03-01T09:32:05.778Z,11.02
2023-03-01T09:34:08.162Z,11.30
2023-03-01T09:36:16.280Z,11.32
2023-03-01T09:38:17.919Z,12.25
2023-03-01T09:40:24.381Z,11.02
2023-03-01T09:42:26.764Z,12.93
2023-03-01T09:44:42.784Z,13.40
2023-03-01T09:46:46.146Z,13.25
2023-03-01T09:48:52.816Z,11.07
2023-03-01T09:50:54.695Z,12.93
2023-03-01T09:53:03.504Z,11.13
2023-03-01T09:55:34.686Z,12.80
2023-03-01T09:57:54.629Z,12.40
2023-03-01T10:00:08.733Z,11.13
2023-03-01T10:02:23.621Z,10.57
2023-03-01T10:04:50.796Z,12.57
2023-03-01T10:07:19.143Z,7.40
2023-03-01T10:09:20.784Z,7.25
2023-03-01T10:11:25.516Z,8.38
2023-03-01T10:13:34.459Z,9.48
2023-03-01T10:15:41.024Z,7.53
2023-03-01T10:17:59.244Z,8.90
2023-03-01T10:20:15.878Z,8.35
2023-03-01T10:22:24.361Z,9.07
2023-03-01T10:24:36.768Z,7.53
2023-03-01T10:26:45.051Z,9.43
2023-03-01T10:28:49.520Z,8.23
2023-03-01T10:30:51.572Z,9.43
2023-03-01T10:32:54.087Z,10.23
2023-03-01T10:34:55.904Z,9.95
2023-03-01T10:37:00.568Z,9.68
2023-03-01T10:39:12.594Z,8.82
2023-03-01T10:41:14.192Z,9.27
2023-03-01T10:43:15.846Z,9.25
2023-03-01T10:45:20.679Z,9.73
2023-03-01T10:47:27.576Z,9.50
2023-03-01T10:49:29.282Z,11.30
2023-03-01T10:51:31.406Z,9.77
2023-03-01T10:53:43.258Z,9.07
2023-03-01T10:55:45.029Z,8.55
2023-03-01T10:57:47.582Z,9.65
2023-03-01T11:00:05.390Z,9.13
2023-03-01T11:02:29.992Z,9.48
2023-03-01T11:04:31.699Z,10.05
2023-03-01T11:06:37.287Z,10.65
2023-03-01T11:08:47.318Z,9.00
2023-03-01T11:10:48.956Z,7.72
2023-03-01T11:12:52.461Z,10.57
2023-03-01T11:14:57.220Z,10.32
2023-03-01T11:17:06.858Z,8.63
2023-03-01T11:19:11.526Z,9.38
2023-03-01T11:21:13.198Z,9.38
2023-03-01T11:23:15.523Z,8.70
2023-03-01T11:25:18.638Z,9.50
2023-03-01T11:27:27.712Z,9.13
2023-03-01T11:29:48.574Z,11.30
2023-03-01T11:31:57.647Z,10.90
2023-03-01T11:34:06.662Z,8.55
2023-03-01T11:36:16.380Z,9.60
2023-03-01T11:38:26.335Z,10.57
2023-03-01T11:40:47.870Z,9.25
2023-03-01T11:42:55.011Z,9.52
2023-03-01T11:45:00.206Z,10.73
2023-03-01T11:47:16.647Z,10.45
2023-03-01T11:49:39.952Z,10.57
2023-03-01T11:52:18.809Z,10.65
2023-03-01T11:54:48.064Z,10.20
2023-03-01T11:56:54.972Z,9.77
2023-03-01T11:58:59.282Z,10.10
2023-03-01T12:01:08.801Z,10.70
2023-03-01T12:03:29.105Z,10.23
2023-03-01T12:05:55.162Z,9.60
2023-03-01T12:08:14.023Z,8.93
2023-03-01T12:10:33.874Z,10.35
2023-03-01T12:12:58.914Z,11.48
2023-03-01T12:15:09.524Z,9.70
2023-03-01T12:17:21.515Z,11.73
2023-03-01T12:19:25.962Z,10.10
2023-03-01T12:21:42.964Z,10.30
2023-03-01T12:24:04.107Z,9.48
2023-03-01T12:26:27.446Z,9.07
2023-03-01T12:28:52.964Z,9.35
2023-03-01T12:31:31.387Z,10.18
2023-03-01T12:34:03.017Z,9.25
2023-03-01T12:36:28.224Z,10.93
2023-03-01T12:38:29.890Z,11.80
2023-03-01T12:40:36.649Z,10.20
2023-03-01T12:43:04.005Z,11.32
2023-03-01T12:45:05.655Z,10.05
2023-03-01T12:48:04.360Z,8.95
2023-03-01T12:50:14.258Z,9.68
2023-03-01T12:52:45.299Z,10.45
2023-03-01T12:54:47.475Z,10.35
2023-03-01T12:56:53.501Z,10.20
2023-03-01T12:59:15.058Z,10.60
2023-03-01T13:01:47.978Z,8.65
2023-03-01T13:04:00.945Z,8.80
2023-03-01T13:06:23.021Z,9.25
2023-03-01T13:08:34.078Z,10.90
2023-03-01T13:10:42.257Z,9.30
2023-03-01T13:12:50.458Z,10.18
2023-03-01T13:14:55.087Z,9.75
2023-03-01T13:16:56.834Z,9.48
2023-03-01T13:19:17.804Z,9.40
2023-03-01T13:21:31.655Z,9.65
2023-03-01T13:23:36.513Z,10.23
2023-03-01T13:26:00.036Z,10.70
2023-03-01T13:28:36.505Z,10.18
2023-03-01T13:30:38.319Z,9.48
2023-03-01T13:32:44.670Z,9.23
2023-03-01T13:34:48.932Z,9.55
2023-03-01T13:36:50.873Z,11.00
2023-03-01T13:38:56.184Z,10.00
2023-03-01T13:41:01.367Z,10.25
2023-03-01T13:43:33.028Z,9.23
2023-03-01T13:45:39.406Z,9.43
2023-03-01T13:47:43.436Z,10.82
2023-03-01T13:49:59.781Z,8.45
2023-03-01T13:52:02.913Z,8.38
2023-03-01T13:54:05.247Z,8.38
2023-03-01T13:56:28.759Z,10.27
2023-03-01T13:58:32.389Z,11.07
2023-03-01T14:00:36.193Z,9.55
2023-03-01T14:02:37.894Z,9.85
2023-03-01T14:04:40.030Z,10.20
2023-03-01T14:06:41.638Z,9.43
2023-03-01T14:08:44.269Z,10.88
2023-03-01T14:10:57.749Z,8.73
2023-03-01T14:13:20.012Z,9.93
2023-03-01T14:15:35.916Z,8.05
2023-03-01T14:18:03.846Z,8.88
2023-03-01T14:20:23.022Z,9.35
2023-03-01T14:22:34.225Z,9.05
2023-03-01T14:24:36.699Z,8.52
2023-03-01T14:26:38.357Z,6.78
2023-03-01T14:28:40.563Z,10.80
2023-03-01T14:30:49.094Z,11.30
2023-03-01T14:32:58.925Z,7.97
2023-03-01T14:35:01.268Z,8.30
2023-03-01T14:37:35.504Z,7.53
2023-03-01T14:39:37.234Z,7.35
2023-03-01T14:41:38.908Z,6.38
2023-03-01T14:43:44.040Z,6.82
2023-03-01T14:45:49.484Z,7.65
2023-03-01T14:47:51.941Z,6.75
2023-03-01T14:49:58.666Z,7.75
2023-03-01T14:52:06.364Z,7.40
2023-03-01T14:54:38.980Z,7.57
2023-03-01T14:56:47.660Z,8.32
2023-03-01T14:59:00.013Z,7.45
2023-03-01T15:01:04.087Z,7.70
2023-03-01T15:03:21.585Z,6.93
2023-03-01T15:05:31.443Z,6.97
2023-03-01T15:07:36.922Z,5.55
2023-03-01T15:09:38.687Z,5.95
2023-03-01T15:11:44.559Z,6.80
2023-03-01T15:13:49.588Z,7.13
2023-03-01T15:15:52.788Z,5.82
2023-03-01T15:17:59.557Z,5.88
2023-03-01T15:20:04.922Z,5.45
2023-03-01T15:22:15.975Z,6.93
2023-03-01T15:24:37.438Z,6.63
2023-03-01T15:26:42.865Z,6.30
2023-03-01T15:28:51.533Z,6.30
2023-03-01T15:31:23.927Z,5.50
2023-03-01T15:33:28.084Z,5.78
2023-03-01T15:35:49.515Z,6.82
2023-03-01T15:37:51.259Z,5.03
2023-03-01T15:39:57.603Z,5.25
2023-03-01T15:41:59.409Z,5.57
2023-03-01T15:44:03.154Z,4.28
2023-03-01T15:46:05.222Z,5.68
2023-03-01T15:48:16.427Z,5.55
2023-03-01T15:50:41.088Z,5.15
2023-03-01T15:52:43.809Z,6.85
2023-03-01T15:54:46.972Z,5.10
2023-03-01T15:56:48.657Z,5.97
2023-03-01T15:58:50.343Z,4.85
2023-03-01T16:01:01.958Z,4.47
2023-03-01T16:03:04.083Z,5.32
2023-03-01T16:05:06.317Z,5.30
2023-03-01T16:07:09.271Z,5.00
2023-03-01T16:09:11.316Z,3.92
2023-03-01T16:11:18.807Z,5.25
2023-03-01T16:13:20.531Z,5.40
2023-03-01T16:15:32.978Z,4.20
2023-03-01T16:17:34.808Z,6.05
2023-03-01T16:19:36.923Z,4.90
2023-03-01T16:21:39.141Z,5.13
2023-03-01T16:23:40.745Z,5.25
2023-03-01T16:25:42.644Z,4.85
2023-03-01T16:27:45.125Z,5.03
2023-03-01T16:29:46.995Z,5.20
2023-03-01T16:31:49.102Z,4.60
2023-03-01T16:33:52.442Z,4.05
2023-03-01T16:35:54.309Z,4.28
2023-03-01T16:37:55.977Z,5.03
2023-03-01T16:39:57.606Z,4.53
2023-03-01T16:42:01.440Z,5.38
2023-03-01T16:44:03.095Z,4.38
2023-03-01T16:46:18.232Z,3.35
2023-03-01T16:48:20.040Z,3.97
2023-03-01T16:50:21.753Z,4.15
2023-03-01T16:52:23.517Z,3.58
2023-03-01T16:54:25.507Z,5.15
2023-03-01T16:56:27.212Z,4.05
2023-03-01T16:58:28.834Z,4.78
2023-03-01T17:00:30.637Z,4.78
2023-03-01T17:02:32.507Z,4.80
2023-03-01T17:04:34.202Z,5.13
2023-03-01T17:06:35.924Z,6.30
2023-03-01T17:08:38.315Z,5.25
2023-03-01T17:10:40.086Z,4.60
2023-03-01T17:12:41.745Z,4.65
2023-03-01T17:14:43.962Z,5.57
2023-03-01T17:16:46.091Z,4.32
2023-03-01T17:18:48.424Z,4.90
2023-03-01T17:20:50.112Z,4.25
2023-03-01T17:22:53.278Z,4.13
2023-03-01T17:24:54.912Z,6.85
2023-03-01T17:26:56.558Z,5.97
2023-03-01T17:28:59.241Z,6.25
2023-03-01T17:31:01.667Z,7.32
2023-03-01T17:33:03.463Z,6.32
2023-03-01T17:35:05.751Z,8.50
2023-03-01T17:37:07.620Z,7.40
2023-03-01T17:39:09.322Z,7.68
2023-03-01T17:41:12.319Z,8.05
2023-03-01T17:43:15.167Z,7.35
2023-03-01T17:45:16.876Z,7.68
2023-03-01T17:47:18.551Z,7.90
2023-03-01T17:49:20.223Z,8.43
2023-03-01T17:51:21.959Z,7.18
2023-03-01T17:53:24.007Z,6.93
2023-03-01T17:55:25.829Z,8.00
2023-03-01T17:57:27.505Z,7.63
2023-03-01T17:59:31.379Z,8.02
2023-03-01T18:01:33.805Z,6.60
2023-03-01T18:03:35.705Z,7.90
2023-03-01T18:05:38.243Z,6.95
2023-03-01T18:07:39.868Z,7.90
2023-03-01T18:09:41.570Z,7.32
2023-03-01T18:11:46.695Z,7.55
2023-03-01T18:13:49.321Z,8.35
2023-03-01T18:15:50.979Z,9.02
2023-03-01T18:17:52.574Z,7.60
2023-03-01T18:19:56.452Z,8.07
2023-03-01T18:21:58.331Z,7.97
2023-03-01T18:23:59.962Z,7.82
2023-03-01T18:26:06.045Z,10.20
2023-03-01T18:28:07.669Z,8.38
2023-03-01T18:30:10.044Z,8.35
2023-03-01T18:32:11.777Z,6.95
2023-03-01T18:34:13.423Z,7.65
2023-03-01T18:36:26.603Z,8.02
2023-03-01T18:38:29.696Z,7.57
2023-03-01T18:40:32.165Z,8.57
2023-03-01T18:42:33.796Z,7.10
2023-03-01T18:44:35.520Z,8.15
2023-03-01T18:46:40.034Z,8.38
2023-03-01T18:48:42.092Z,8.50
2023-03-01T18:50:43.799Z,9.40
2023-03-01T18:52:45.411Z,8.75
2023-03-01T18:54:47.238Z,7.93
2023-03-01T18:56:48.834Z,8.20
2023-03-01T18:58:50.516Z,7.20
2023-03-01T19:00:52.242Z,8.32
2023-03-01T19:02:53.971Z,9.98
2023-03-01T19:04:55.664Z,8.40
2023-03-01T19:06:57.902Z,9.25
2023-03-01T19:09:00.424Z,7.93
2023-03-01T19:11:05.235Z,8.45
2023-03-01T19:13:06.880Z,11.32
2023-03-01T19:15:08.698Z,8.38
2023-03-01T19:17:10.451Z,9.90
2023-03-01T19:19:12.457Z,8.77
2023-03-01T19:21:14.062Z,8.68
2023-03-01T19:23:15.609Z,9.05
2023-03-01T19:25:17.449Z,10.45
2023-03-01T19:27:19.337Z,8.95
2023-03-01T19:29:21.048Z,9.73
2023-03-01T19:31:25.994Z,10.43
2023-03-01T19:33:29.078Z,10.35
2023-03-01T19:35:30.821Z,9.48
2023-03-01T19:37:35.033Z,9.80
2023-03-01T19:39:36.988Z,10.13
2023-03-01T19:41:38.724Z,10.48
2023-03-01T19:43:42.131Z,9.95
2023-03-01T19:45:43.842Z,9.27
2023-03-01T19:47:47.769Z,10.60
2023-03-01T19:49:49.425Z,9.27
2023-03-01T19:51:51.242Z,9.35
2023-03-01T19:53:54.793Z,8.90
2023-03-01T19:56:01.220Z,10.73
2023-03-01T19:58:03.414Z,10.48
2023-03-01T20:00:05.816Z,9.18
2023-03-01T20:02:08.238Z,9.95
2023-03-01T20:04:10.037Z,9.88
2023-03-01T20:06:15.517Z,10.40
2023-03-01T20:08:17.215Z,11.02
2023-03-01T20:10:19.213Z,11.13
2023-03-01T20:12:20.887Z,9.25
2023-03-01T20:14:24.219Z,11.35
2023-03-01T20:16:26.947Z,10.95
2023-03-01T20:18:28.894Z,8.93
2023-03-01T20:20:30.553Z,9.82
2023-03-01T20:22:32.229Z,9.90
2023-03-01T20:24:33.911Z,9.45
2023-03-01T20:26:36.778Z,9.73
2023-03-01T20:28:38.446Z,10.98
2023-03-01T20:30:40.661Z,9.02
2023-03-01T20:32:42.547Z,9.70
2023-03-01T20:34:44.314Z,10.07
2023-03-01T20:36:45.992Z,11.35
2023-03-01T20:38:47.704Z,10.60
2023-03-01T20:40:49.348Z,9.75
2023-03-01T20:42:50.963Z,10.77
2023-03-01T20:44:52.792Z,11.35
2023-03-01T20:46:54.473Z,9.32
2023-03-01T20:48:56.173Z,10.23
2023-03-01T20:51:01.724Z,10.52
2023-03-01T20:53:03.473Z,9.70
2023-03-01T20:55:05.578Z,10.57
2023-03-01T20:57:07.247Z,9.90
2023-03-01T20:59:11.146Z,9.90
2023-03-01T21:01:17.130Z,9.43
2023-03-01T21:03:18.844Z,9.30
2023-03-01T21:05:20.496Z,9.88
2023-03-01T21:07:22.091Z,10.63
2023-03-01T21:09:23.816Z,10.57
2023-03-01T21:11:25.469Z,9.57
2023-03-01T21:13:28.461Z,10.90
2023-03-01T21:15:30.146Z,10.88
2023-03-01T21:17:33.144Z,11.30
2023-03-01T21:19:37.387Z,12.30
2023-03-01T21:21:39.023Z,11.45
2023-03-01T21:23:42.552Z,12.57
2023-03-01T21:25:45.443Z,11.63
2023-03-01T21:27:47.053Z,11.63
2023-03-01T21:29:49.482Z,11.02
2023-03-01T21:31:51.593Z,10.05
2023-03-01T21:33:55.258Z,11.40
2023-03-01T21:36:01.669Z,11.05
2023-03-01T21:38:03.393Z,10.90
2023-03-01T21:40:09.065Z,11.50
2023-03-01T21:42:10.758Z,9.48
2023-03-01T21:44:12.386Z,10.35
2023-03-01T21:46:16.939Z,9.82
2023-03-01T21:48:18.645Z,10.15
2023-03-01T21:50:20.326Z,10.35
2023-03-01T21:52:22.039Z,10.48
2023-03-01T21:54:23.647Z,11.23
2023-03-01T21:56:27.932Z,10.75
2023-03-01T21:58:31.565Z,10.18
2023-03-01T22:00:33.281Z,10.13
2023-03-01T22:02:35.021Z,11.77
2023-03-01T22:04:37.457Z,11.23
2023-03-01T22:06:42.541Z,10.23
2023-03-01T22:08:49.327Z,10.48
2023-03-01T22:10:51.341Z,11.25
2023-03-01T22:12:57.367Z,10.93
2023-03-01T22:14:59.084Z,9.25
2023-03-01T22:17:00.985Z,10.95
2023-03-01T22:19:04.311Z,9.60
2023-03-01T22:21:07.401Z,11.13
2023-03-01T22:23:09.244Z,10.55
2023-03-01T22:25:11.970Z,11.35
2023-03-01T22:27:13.627Z,11.15
2023-03-01T22:29:21.582Z,9.80
2023-03-01T22:31:23.702Z,11.02
2023-03-01T22:33:25.320Z,11.10
2023-03-01T22:35:27.015Z,11.15
2023-03-01T22:37:28.621Z,12.38
2023-03-01T22:39:30.297Z,10.88
2023-03-01T22:41:38.418Z,11.73
2023-03-01T22:43:40.104Z,12.43
2023-03-01T22:45:41.820Z,10.20
2023-03-01T22:47:43.527Z,11.18
2023-03-01T22:49:45.201Z,12.18
2023-03-01T22:51:47.740Z,11.80
2023-03-01T22:53:49.496Z,11.20
2023-03-01T22:55:51.200Z,11.73
2023-03-01T22:57:52.817Z,11.93
2023-03-01T22:59:54.468Z,12.77
2023-03-01T23:01:56.278Z,11.68
2023-03-01T23:03:58.428Z,11.30
2023-03-01T23:06:00.130Z,11.32
2023-03-01T23:08:01.806Z,11.15
2023-03-01T23:10:05.005Z,11.52
2023-03-01T23:12:07.542Z,12.95
2023-03-01T23:14:09.208Z,11.38
2023-03-01T23:16:11.824Z,9.88
2023-03-01T23:18:13.422Z,10.27
2023-03-01T23:20:15.661Z,11.88
2023-03-01T23:22:18.724Z,10.80
2023-03-01T23:24:22.357Z,9.88
2023-03-01T23:26:27.562Z,11.27
2023-03-01T23:28:30.155Z,10.23
2023-03-01T23:30:31.886Z,10.13
2023-03-01T23:32:38.448Z,10.73
2023-03-01T23:34:44.416Z,11.60
2023-03-01T23:36:46.198Z,10.90
2023-03-01T23:38:49.247Z,11.75
2023-03-01T23:40:50.896Z,11.05
2023-03-01T23:42:52.519Z,12.73
2023-03-01T23:44:54.178Z,11.55
2023-03-01T23:46:56.080Z,13.13
2023-03-01T23:48:57.818Z,12.55
2023-03-01T23:51:04.629Z,12.25
2023-03-01T23:53:06.237Z,14.40
2023-03-01T23:55:08.854Z,12.98
2023-03-01T23:57:10.501Z,12.75
2023-03-01T23:59:17.691Z,12.57
